Smyre, North Carolina
Current Conditions -  °F | °C
As of 7:54 AM on Sunday 23 Nov 2014 (Local Time) from KAKH Reporting Station
Light Rain Light Rain  
Wind Chill: 38°   Ceiling: 600
Heat Index: 42°   Visibility: 4mi
Dew Point: 38°   Wind: 6mph
Humidity: 85%   Direction: 20°NNE
Pressure: 30.2"   Gusts: NA
Location:  35.2205°N, 81.2501°W
Report Text: KAKH 231254Z AUTO 02005KT 4SM -RA BR OVC006 06/03 A3020 RMK AO2 SLP231 P0007 T00560033
Loading
Personal Weather Stations






























Interactive Weather Map New forecast layout! Learn more

10-Day Weather Forecast

Advertisements
Track Severe Weather on mobile